EDT,Max TemperatureF,Mean TemperatureF,Min TemperatureF,Max Dew PointF,MeanDew PointF,Min DewpointF,Max Humidity, Mean Humidity, Min Humidity, Max Sea Level PressureIn, Mean Sea Level PressureIn, Min Sea Level PressureIn, Max VisibilityMiles, Mean VisibilityMiles, Min VisibilityMiles, Max Wind SpeedMPH, Mean Wind SpeedMPH, Max Gust SpeedMPH,PrecipitationIn, CloudCover, Events, WindDirDegrees
2013-9-1,86,76,66,68,66,64,100,63,48,29.81,29.78,29.76,10,9,4,10,4,,0.00,2,,227
2013-9-2,75,70,62,66,58,54,94,68,47,29.95,29.90,29.83,10,9,5,12,7,17,0.00,3,,336
2013-9-3,75,65,55,54,52,50,94,62,41,30.08,30.05,30.02,10,10,10,9,3,,0.00,3,,323
2013-9-4,80,65,50,57,50,46,100,53,32,30.14,30.11,30.09,10,9,5,13,5,17,0.00,0,,282
2013-9-5,77,70,62,59,42,28,88,40,17,30.26,30.23,30.19,10,10,10,10,7,,0.00,1,,40
2013-9-6,80,65,50,55,49,45,87,48,28,30.27,30.19,30.10,10,10,10,7,4,,0.00,1,,174
2013-9-7,87,74,62,61,58,55,77,50,35,30.05,29.99,29.95,10,10,10,12,5,16,0.00,2,Rain,242
2013-9-8,77,72,68,64,62,59,88,67,54,30.05,30.04,30.02,10,9,5,12,12,18,0.00,6,,75
2013-9-9,91,78,64,68,62,50,68,56,43,30.01,29.96,29.89,10,10,10,10,7,,0.00,2,,163
2013-9-10,96,86,75,68,60,55,78,42,25,30.05,30.03,30.00,10,10,10,17,8,23,0.00,0,,241
2013-9-11,95,84,73,68,65,57,83,57,28,30.08,30.03,29.97,10,10,7,17,7,28,0.00,2,Rain-Thunderstorm,251
2013-9-12,82,75,66,68,53,43,100,55,26,30.00,29.96,29.90,10,9,4,10,6,17,0.00,2,,321
2013-9-13,64,58,51,43,39,36,67,49,34,30.14,30.12,30.09,10,10,10,12,7,18,0.00,3,,8
2013-9-14,69,54,39,39,34,32,100,40,25,30.21,30.16,30.12,10,10,10,7,3,,0.00,0,,215
2013-9-15,62,60,59,54,49,41,82,66,51,30.10,30.08,30.07,10,10,10,9,5,,0.00,6,,90
2013-9-16,66,60,55,52,46,41,88,59,40,30.34,30.31,30.26,10,10,10,9,7,,0.00,3,,46
2013-9-17,69,56,44,45,42,39,87,53,35,30.38,30.27,30.07,10,10,10,10,5,,0.00,0,,122
2013-9-18,80,66,53,55,51,46,82,50,30,30.16,30.08,30.00,10,10,10,10,4,18,0.00,2,,158
2013-9-19,73,70,66,66,64,46,94,87,49,30.05,29.98,29.89,10,7,1,9,5,,0.00,5,Rain-Thunderstorm,180
2013-9-20,73,70,68,68,67,66,94,87,78,29.87,29.82,29.78,10,8,4,12,7,21,0.00,7,Rain,243
2013-9-21,66,62,59,55,47,41,88,59,42,29.88,29.84,29.80,10,10,10,14,8,18,0.00,6,,320
2013-9-22,64,57,50,48,41,39,94,52,40,30.05,30.03,30.01,10,10,10,9,5,,0.00,3,,347
2013-9-23,66,54,41,45,43,39,93,62,43,30.16,30.12,30.08,10,10,10,12,5,,0.00,1,,102
2013-9-24,69,56,44,45,43,41,87,57,35,30.13,30.06,29.97,10,8,3,12,5,14,0.00,1,,102
2013-9-25,73,60,48,50,47,45,93,61,36,30.00,29.97,29.94,10,8,3,8,4,,0.00,0,,84
2013-9-26,77,62,46,50,45,41,100,53,28,30.12,30.08,30.06,10,8,0,9,2,,0.00,0,Fog,99
2013-9-27,77,62,48,50,47,43,87,47,32,30.22,30.17,30.13,10,10,10,10,5,17,0.00,1,,117
2013-9-28,82,66,50,54,51,48,100,54,30,30.17,30.10,30.01,10,9,4,13,6,17,0.00,0,,166
2013-9-29,68,64,59,57,51,46,94,66,46,30.04,30.01,29.99,10,10,10,6,5,,0.00,5,,350
2013-9-30,71,58,44,50,48,45,100,68,41,30.03,29.98,29.94,10,7,0,10,2,,0.00,2,Fog,213